Gruetli Laager, TN (37339)

4:51 AM CDT on June 23, 2018 (GMT -0500)
Gruetli | | Change Station
Active Advisory: Special Statement Active Notice: Public Information Statement

Elev 1909 ft 35.37 °N, 85.66 °W | Updated 33 seconds ago

Overcast
Overcast
67.1 °F
Feels Like 67.1 °F
N
0
Wind Variable Wind from ESE
Gusts 0.0 mph

Today
High -- | Low -- °F
--% Chance of Precip.
Yesterday
High -- | Low -- °F
Precip. -- in
Pressure 29.86 in
Visibility 10.0 miles
Clouds Mostly Cloudy 800 ft
Overcast 1400 ft
Dew Point 66 °F
Humidity 98%
Rainfall 0.00 in
Snow Depth Not available.
5:28 AM 8:01 PM
Waxing Gibbous, 79% visible
METAR KBGF 230935Z AUTO 00000KT 10SM BKN008 OVC014 20/20 A2986 RMK A01
Pressure 29.86 in
Visibility 10.0 miles
Clouds Mostly Cloudy 800 ft
Overcast 1400 ft
Dew Point 66 °F
Humidity 98%
Rainfall 0.00 in
Snow Depth Not available.
5:28 AM 8:01 PM
Waxing Gibbous, 79% visible
METAR KBGF 230935Z AUTO 00000KT 10SM BKN008 OVC014 20/20 A2986 RMK A01

Get Your Daily Forecast Email!

Thanks for signing up!

Be on the lookout for a verification email in your inbox.

You'll start receiving severe weather alerts in your inbox..

×

10-Day Weather Forecast

Almanac

Astronomy

Jun. 23, 2018 Rise Set
Actual Time
Civil Twilight
Nautical Twilight
Astronomical Twilight
Moon
Length of Visible Light
Length of Day
Tomorrow will be .
, % of the Moon is Illuminated

Today's Extremes

State Highs State Lows

Community

WunderPhotos

Category 6

Welcome to Category 6. This is the collective home for Weather Underground's featured writeups by Dr. Jeff Masters (right), Bob Henson (left), Chris Burt, and other regular contributors.

Nearby

Air Quality

  Air Quality AQ Index Pollutant
Not available.

Snow Depth

Station Depth Elevation

Earthquake Activity

City Distance Mag. Time & Date
Minimum magnitude displayed is 2.5.

Coastal Water Temperatures

Place Temperature

Stations

Nearby Weather Stations

Station Location Temp. Windchill Dew Point Humidity Wind Precip. Elev Updated Type
                   

Watches & Warnings

Special Statement
Issued: 2:44 AM CDT Jun. 23, 2018 – National Weather Service

... Patchy dense fog for parts of middle TN...

Patchy dense fog is possible over parts of the south and east
this morning. Visibilities may drop below one mile at times...
causing degraded driving conditions.

Conditions should begin to improve by 8am.



244 am CDT Sat Jun 23 2018

... Patchy dense fog for parts of middle TN...

Patchy dense fog is possible over parts of the south and east
this morning. Visibilities may drop below one mile at times...
causing degraded driving conditions.

Conditions should begin to improve by 8am.